Flight Track Log - Related Links

Times and Time Zones

All times are in EDT time to prevent confusion due to time zone crossing. See the AWI4083 flight status page for this flight to view local times or setup timezone preferences in your user account.

Time Position Orientation Groundspeed Altitude Reporting Facility
EDT Latitude Longitude Course Direction KTS MPH feet Rate Location/Type
Thu 11:42:25 AM 38.9000 -77.0833 180° South 199 229 2,600  Level Potomac TRACON
Thu 11:43:31 AM 38.9500 -77.1500 314° West 252 290 5,700 2,700 Climbing Potomac TRACON
Thu 11:44:00 AM 38.6210 -76.7947 134° Southeast  Level FlightAware Approximate
Thu 11:44:25 AM 39.0000 -77.1833 333° Northwest 271 312 8,000  Level Potomac TRACON
Thu 11:45:00 AM 38.5440 -76.7167 180° South  Level FlightAware Approximate
Thu 11:45:25 AM 39.0333 -77.1000 63° Northeast 310 357 10,600  Level Potomac TRACON
Thu 11:46:00 AM 38.4453 -76.7000 180° South  Level FlightAware Approximate
Thu 11:46:25 AM 38.9833 -77.0167 128° Southeast 322 371 13,000  Level Potomac TRACON
Thu 11:47:00 AM 38.3586 -76.6833 180° South  Level FlightAware Approximate
Thu 11:47:25 AM 38.9167 -76.9500 142° Southeast 311 358 15,300  Level Potomac TRACON
Thu 11:48:19 AM 38.8500 -76.9167 159° South 338 389 17,200 1,521 Climbing Potomac TRACON
Thu 11:49:51 AM 38.7339 -76.8425 154° Southeast 349 402 19,000 715 Climbing Washington Center
Thu 11:50:50 AM 38.6469 -76.7878 154° Southeast 343 395 19,000 252 Level Washington Center
Thu 11:51:50 AM 38.5578 -76.7333 154° Southeast 343 395 19,500 900 Climbing Washington Center
Thu 11:52:50 AM 38.4642 -76.7161 172° South 343 395 20,800 1,300 Climbing Washington Center
Thu 11:53:50 AM 38.3703 -76.7039 174° South 343 395 22,100 1,140 Climbing Washington Center
Thu 11:54:51 AM 38.2744 -76.6867 172° South 343 395 23,100 942 Climbing Washington Center
Thu 11:55:51 AM 38.1744 -76.6747 175° South 354 407 24,000 1,059 Climbing Washington Center
Thu 11:56:50 AM 38.0767 -76.6600 173° South 354 407 25,200 1,300 Climbing Washington Center
Thu 11:57:51 AM 37.9789 -76.6481 174° South 354 407 26,600 1,300 Climbing Washington Center
Thu 11:58:50 AM 37.8869 -76.6547 183° South 349 402 27,800 1,050 Climbing Washington Center
Thu 11:59:51 AM 37.7972 -76.6667 186° South 337 388 28,700 942 Climbing Washington Center
Thu 12:00:51 PM 37.7053 -76.6786 186° South 332 382 29,700 650 Climbing Washington Center
Thu 12:01:51 PM 37.6133 -76.6903 186° South 332 382 30,000 151 Climbing Washington Center
Thu 12:02:50 PM 37.5172 -76.7019 185° South 338 389 30,000  Level Washington Center
Thu 12:03:50 PM 37.4169 -76.7214 189° South 357 411 30,000  Level Washington Center
Thu 12:04:51 PM 37.3208 -76.7592 197° South 357 411 30,000  Level Washington Center
Thu 12:05:51 PM 37.2264 -76.8022 200° South 362 417 30,000  Level Washington Center
Thu 12:06:51 PM 37.1300 -76.8397 197° South 367 422 30,000  Level Washington Center
Thu 12:07:51 PM 37.0358 -76.8825 200° South 367 422 30,000  Level Washington Center
Thu 12:08:51 PM 36.9372 -76.9222 198° South 367 422 30,000  Level Washington Center
Thu 12:09:51 PM 36.8408 -76.9597 197° South 367 422 30,000  Level Washington Center
Thu 12:10:51 PM 36.7444 -77.0019 199° South 367 422 30,000  Level Washington Center
Thu 12:11:51 PM 36.6603 -77.0625 210° Southwest 362 417 30,000  Level Washington Center
Thu 12:12:51 PM 36.5800 -77.1361 216° Southwest 356 410 30,000  Level Washington Center
Thu 12:13:51 PM 36.5019 -77.2147 219° Southwest 363 418 30,000  Level Washington Center
Thu 12:14:51 PM 36.4217 -77.2906 217° Southwest 368 423 30,000  Level Washington Center
Thu 12:15:51 PM 36.3411 -77.3636 216° Southwest 368 423 30,000  Level Washington Center
Thu 12:16:51 PM 36.2608 -77.4414 218° Southwest 368 423 30,000  Level Washington Center
Thu 12:17:51 PM 36.1844 -77.5144 218° Southwest 368 423 30,000  Level Washington Center
Thu 12:18:51 PM 36.0997 -77.5894 216° Southwest 375 432 30,000  Level Washington Center
Thu 12:19:51 PM 36.0214 -77.6644 218° Southwest 375 432 30,000  Level Washington Center
Thu 12:20:51 PM 35.9367 -77.7367 215° Southwest 375 432 30,000  Level Washington Center
Thu 12:21:51 PM 35.8497 -77.8086 214° Southwest 375 432 30,000  Level Washington Center
Thu 12:22:50 PM 35.7608 -77.8753 211° Southwest 375 432 30,000  Level Washington Center
Thu 12:23:51 PM 35.6719 -77.9444 212° Southwest 380 437 30,000  Level Washington Center
Thu 12:24:51 PM 35.5828 -78.0131 212° Southwest 380 437 30,000  Level Washington Center
Thu 12:25:50 PM 35.4939 -78.0819 212° Southwest 380 437 30,000 -450 Level Washington Center
Thu 12:26:51 PM 35.4006 -78.1556 213° Southwest 385 443 29,100 -950 Descending Washington Center
Thu 12:27:50 PM 35.3114 -78.2239 212° Southwest 385 443 28,100 -550 Descending Washington Center
Thu 12:28:51 PM 35.2200 -78.2947 212° Southwest 385 443 28,000 -50 Descending Washington Center
Thu 12:29:51 PM 35.1308 -78.3628 212° Southwest 385 443 28,000  Level Washington Center
Thu 12:33:28 PM 34.8128 -78.6042 212° Southwest 383 441 28,000  Level Jacksonville Center
Thu 12:34:27 PM 34.7275 -78.6717 213° Southwest 383 441 28,000  Level Jacksonville Center
Thu 12:35:27 PM 34.6381 -78.7392 212° Southwest 383 441 28,000  Level Jacksonville Center
Thu 12:36:28 PM 34.5483 -78.8064 212° Southwest 383 441 28,000  Level Jacksonville Center
Thu 12:37:28 PM 34.4589 -78.8811 215° Southwest 393 452 28,000  Level Jacksonville Center
Thu 12:38:27 PM 34.3672 -78.9508 212° Southwest 393 452 28,000  Level Jacksonville Center
Thu 12:39:27 PM 34.2736 -79.0206 212° Southwest 393 452 28,000  Level Jacksonville Center
Thu 12:40:27 PM 34.1708 -79.0703 202° Southwest 393 452 28,000 -450 Level Jacksonville Center
Thu 12:41:27 PM 34.0636 -79.1150 199° South 405 466 27,100 -1,339 Descending Jacksonville Center
Thu 12:42:28 PM 33.9544 -79.1647 201° Southwest 411 473 25,300 -2,000 Descending Jacksonville Center
Thu 12:43:27 PM 33.8558 -79.2114 201° Southwest 405 466 23,100 -2,269 Descending Jacksonville Center
Thu 12:44:27 PM 33.7611 -79.2578 202° Southwest 386 444 20,800 -2,331 Descending Jacksonville Center
Thu 12:45:28 PM 33.6711 -79.3239 211° Southwest 357 411 18,400 -1,400 Descending Jacksonville Center
Thu 12:46:27 PM 33.5894 -79.3869 213° Southwest 356 410 18,000 -1,160 Descending Jacksonville Center
Thu 12:47:27 PM 33.5078 -79.4475 212° Southwest 356 410 16,100 -2,300 Descending Jacksonville Center
Thu 12:48:27 PM 33.4300 -79.5053 212° Southwest 345 397 13,400 -2,550 Descending Jacksonville Center
Thu 12:49:27 PM 33.3522 -79.5656 213° Southwest 340 391 11,000 -1,488 Descending Jacksonville Center
Thu 12:50:28 PM 33.2786 -79.6181 211° Southwest 330 380 10,400 -1,091 Descending Jacksonville Center
Thu 12:51:28 PM 33.2194 -79.6747 219° Southwest 305 351 8,800 -1,664 Descending Jacksonville Center
Thu 12:52:27 PM 33.2025 -79.7450 254° West 251 289 7,100 -1,664 Descending Jacksonville Center
Thu 12:53:27 PM 33.1981 -79.8169 266° West 227 261 5,500 -1,587 Descending Jacksonville Center
Thu 12:54:28 PM 33.1914 -79.8892 264° West 222 255 3,900 -1,300 Descending Jacksonville Center
Thu 12:55:27 PM 33.1442 -79.9231 211° Southwest 195 224 2,900 -504 Descending Jacksonville Center
Thu 12:56:27 PM 33.0903 -79.9472 201° Southwest 195 224 2,900  Level Jacksonville Center

Login

Don't have an account? Register now (free) for customized features, flight alerts, and more!